sensor_id;sensor_type;location;lat;lon;timestamp;P1;durP1;ratioP1;P2;durP2;ratioP2
21297;SDS011;10808;48.010;11.326;2024-02-14T00:02:14;28.17;;;14.70;;
21297;SDS011;10808;48.010;11.326;2024-02-14T00:04:40;32.95;;;16.95;;
21297;SDS011;10808;48.010;11.326;2024-02-14T00:07:06;34.17;;;17.90;;
21297;SDS011;10808;48.010;11.326;2024-02-14T00:09:32;37.53;;;19.83;;
21297;SDS011;10808;48.010;11.326;2024-02-14T00:11:58;38.90;;;18.90;;
21297;SDS011;10808;48.010;11.326;2024-02-14T00:14:24;29.70;;;16.70;;
21297;SDS011;10808;48.010;11.326;2024-02-14T00:16:50;30.08;;;15.95;;
21297;SDS011;10808;48.010;11.326;2024-02-14T00:19:16;28.63;;;15.30;;
21297;SDS011;10808;48.010;11.326;2024-02-14T00:21:42;23.17;;;13.20;;
21297;SDS011;10808;48.010;11.326;2024-02-14T00:24:08;22.55;;;12.55;;
21297;SDS011;10808;48.010;11.326;2024-02-14T00:26:34;20.45;;;11.27;;
21297;SDS011;10808;48.010;11.326;2024-02-14T00:29:01;19.00;;;10.60;;
21297;SDS011;10808;48.010;11.326;2024-02-14T00:31:28;19.02;;;9.73;;
21297;SDS011;10808;48.010;11.326;2024-02-14T00:33:54;14.07;;;7.93;;
21297;SDS011;10808;48.010;11.326;2024-02-14T00:36:21;14.18;;;8.10;;
21297;SDS011;10808;48.010;11.326;2024-02-14T00:38:47;11.98;;;6.93;;
21297;SDS011;10808;48.010;11.326;2024-02-14T00:41:13;9.70;;;5.85;;
21297;SDS011;10808;48.010;11.326;2024-02-14T00:43:39;9.65;;;5.57;;
21297;SDS011;10808;48.010;11.326;2024-02-14T00:46:05;7.15;;;5.00;;
21297;SDS011;10808;48.010;11.326;2024-02-14T00:48:31;6.95;;;4.70;;
21297;SDS011;10808;48.010;11.326;2024-02-14T00:50:58;9.10;;;4.90;;
21297;SDS011;10808;48.010;11.326;2024-02-14T00:53:24;9.37;;;5.53;;
21297;SDS011;10808;48.010;11.326;2024-02-14T00:55:51;8.95;;;5.53;;
21297;SDS011;10808;48.010;11.326;2024-02-14T00:58:17;8.82;;;4.93;;
21297;SDS011;10808;48.010;11.326;2024-02-14T01:00:43;8.30;;;5.40;;
21297;SDS011;10808;48.010;11.326;2024-02-14T01:03:09;9.07;;;4.80;;
21297;SDS011;10808;48.010;11.326;2024-02-14T01:05:38;8.43;;;4.97;;
21297;SDS011;10808;48.010;11.326;2024-02-14T01:08:04;8.90;;;4.55;;
21297;SDS011;10808;48.010;11.326;2024-02-14T01:10:30;6.65;;;4.20;;
21297;SDS011;10808;48.010;11.326;2024-02-14T01:12:56;8.27;;;4.35;;
21297;SDS011;10808;48.010;11.326;2024-02-14T01:15:22;6.30;;;4.03;;
21297;SDS011;10808;48.010;11.326;2024-02-14T01:17:48;4.95;;;3.47;;
21297;SDS011;10808;48.010;11.326;2024-02-14T01:20:14;6.20;;;3.60;;
21297;SDS011;10808;48.010;11.326;2024-02-14T01:22:40;5.57;;;3.30;;
21297;SDS011;10808;48.010;11.326;2024-02-14T01:25:07;5.97;;;3.20;;
21297;SDS011;10808;48.010;11.326;2024-02-14T01:27:36;5.47;;;3.10;;
21297;SDS011;10808;48.010;11.326;2024-02-14T01:30:02;4.68;;;3.00;;
21297;SDS011;10808;48.010;11.326;2024-02-14T01:32:30;5.07;;;3.30;;
21297;SDS011;10808;48.010;11.326;2024-02-14T01:34:57;7.20;;;3.05;;
21297;SDS011;10808;48.010;11.326;2024-02-14T01:37:23;4.27;;;2.93;;
21297;SDS011;10808;48.010;11.326;2024-02-14T01:39:49;5.13;;;3.05;;
21297;SDS011;10808;48.010;11.326;2024-02-14T01:42:15;5.60;;;3.15;;
21297;SDS011;10808;48.010;11.326;2024-02-14T01:44:41;5.33;;;2.90;;
21297;SDS011;10808;48.010;11.326;2024-02-14T01:47:09;6.03;;;3.10;;
21297;SDS011;10808;48.010;11.326;2024-02-14T01:49:35;5.43;;;2.80;;
21297;SDS011;10808;48.010;11.326;2024-02-14T01:52:02;6.07;;;2.80;;
21297;SDS011;10808;48.010;11.326;2024-02-14T01:54:29;4.57;;;2.90;;
21297;SDS011;10808;48.010;11.326;2024-02-14T01:56:56;3.55;;;2.78;;
21297;SDS011;10808;48.010;11.326;2024-02-14T01:59:24;5.23;;;2.70;;
21297;SDS011;10808;48.010;11.326;2024-02-14T02:01:51;5.63;;;2.88;;
21297;SDS011;10808;48.010;11.326;2024-02-14T02:04:17;3.78;;;2.65;;
21297;SDS011;10808;48.010;11.326;2024-02-14T02:06:44;5.53;;;2.53;;
21297;SDS011;10808;48.010;11.326;2024-02-14T02:09:10;4.57;;;2.60;;
21297;SDS011;10808;48.010;11.326;2024-02-14T02:14:59;3.50;;;2.50;;
21297;SDS011;10808;48.010;11.326;2024-02-14T02:17:25;3.58;;;2.50;;
21297;SDS011;10808;48.010;11.326;2024-02-14T02:19:54;6.00;;;2.80;;
21297;SDS011;10808;48.010;11.326;2024-02-14T02:22:20;4.78;;;2.85;;
21297;SDS011;10808;48.010;11.326;2024-02-14T02:24:46;5.53;;;3.10;;
21297;SDS011;10808;48.010;11.326;2024-02-14T02:27:13;5.05;;;3.05;;
21297;SDS011;10808;48.010;11.326;2024-02-14T02:29:41;6.18;;;3.65;;
21297;SDS011;10808;48.010;11.326;2024-02-14T02:32:07;6.03;;;3.70;;
21297;SDS011;10808;48.010;11.326;2024-02-14T02:34:35;6.18;;;3.28;;
21297;SDS011;10808;48.010;11.326;2024-02-14T02:37:05;4.47;;;3.15;;
21297;SDS011;10808;48.010;11.326;2024-02-14T02:39:34;5.80;;;3.50;;
21297;SDS011;10808;48.010;11.326;2024-02-14T02:42:04;5.23;;;3.10;;
21297;SDS011;10808;48.010;11.326;2024-02-14T02:44:31;3.00;;;2.55;;
21297;SDS011;10808;48.010;11.326;2024-02-14T02:46:57;3.60;;;2.50;;
21297;SDS011;10808;48.010;11.326;2024-02-14T02:49:23;3.90;;;2.43;;
21297;SDS011;10808;48.010;11.326;2024-02-14T02:51:49;4.20;;;2.33;;
21297;SDS011;10808;48.010;11.326;2024-02-14T02:54:15;3.67;;;2.22;;
21297;SDS011;10808;48.010;11.326;2024-02-14T02:56:41;3.30;;;2.33;;
21297;SDS011;10808;48.010;11.326;2024-02-14T02:59:07;4.10;;;2.40;;
21297;SDS011;10808;48.010;11.326;2024-02-14T03:01:36;3.43;;;2.30;;
21297;SDS011;10808;48.010;11.326;2024-02-14T03:04:02;4.47;;;2.30;;
21297;SDS011;10808;48.010;11.326;2024-02-14T03:06:28;3.20;;;2.30;;
21297;SDS011;10808;48.010;11.326;2024-02-14T03:08:55;3.42;;;2.17;;
21297;SDS011;10808;48.010;11.326;2024-02-14T03:11:22;3.40;;;2.22;;
21297;SDS011;10808;48.010;11.326;2024-02-14T03:13:48;3.03;;;2.20;;
21297;SDS011;10808;48.010;11.326;2024-02-14T03:16:15;3.03;;;2.30;;
21297;SDS011;10808;48.010;11.326;2024-02-14T03:18:43;4.13;;;2.10;;
21297;SDS011;10808;48.010;11.326;2024-02-14T03:21:09;3.80;;;2.17;;
21297;SDS011;10808;48.010;11.326;2024-02-14T03:23:37;3.28;;;2.10;;
21297;SDS011;10808;48.010;11.326;2024-02-14T03:26:05;3.53;;;2.22;;
21297;SDS011;10808;48.010;11.326;2024-02-14T03:28:33;4.32;;;2.25;;
21297;SDS011;10808;48.010;11.326;2024-02-14T03:30:59;3.80;;;2.20;;
21297;SDS011;10808;48.010;11.326;2024-02-14T03:33:25;4.40;;;2.10;;
21297;SDS011;10808;48.010;11.326;2024-02-14T03:35:51;3.28;;;2.03;;
21297;SDS011;10808;48.010;11.326;2024-02-14T03:38:29;3.58;;;2.30;;
21297;SDS011;10808;48.010;11.326;2024-02-14T03:40:56;3.15;;;2.17;;
21297;SDS011;10808;48.010;11.326;2024-02-14T03:43:23;4.05;;;2.30;;
21297;SDS011;10808;48.010;11.326;2024-02-14T03:45:51;4.10;;;2.40;;
21297;SDS011;10808;48.010;11.326;2024-02-14T03:48:17;4.75;;;2.38;;
21297;SDS011;10808;48.010;11.326;2024-02-14T03:50:43;3.30;;;2.20;;
21297;SDS011;10808;48.010;11.326;2024-02-14T03:53:09;3.87;;;2.60;;
21297;SDS011;10808;48.010;11.326;2024-02-14T03:55:36;3.97;;;2.30;;
21297;SDS011;10808;48.010;11.326;2024-02-14T03:58:03;3.55;;;2.45;;
21297;SDS011;10808;48.010;11.326;2024-02-14T04:00:30;4.47;;;2.57;;
21297;SDS011;10808;48.010;11.326;2024-02-14T04:02:57;4.13;;;2.47;;
21297;SDS011;10808;48.010;11.326;2024-02-14T04:05:26;4.72;;;2.40;;
21297;SDS011;10808;48.010;11.326;2024-02-14T04:07:53;4.03;;;2.30;;
21297;SDS011;10808;48.010;11.326;2024-02-14T04:10:20;3.78;;;2.47;;
21297;SDS011;10808;48.010;11.326;2024-02-14T04:12:46;3.15;;;2.20;;
21297;SDS011;10808;48.010;11.326;2024-02-14T04:15:13;4.18;;;2.40;;
21297;SDS011;10808;48.010;11.326;2024-02-14T04:17:39;2.85;;;2.20;;
21297;SDS011;10808;48.010;11.326;2024-02-14T04:20:05;3.38;;;2.33;;
21297;SDS011;10808;48.010;11.326;2024-02-14T04:22:32;3.88;;;2.30;;
21297;SDS011;10808;48.010;11.326;2024-02-14T04:24:58;5.40;;;2.35;;
21297;SDS011;10808;48.010;11.326;2024-02-14T04:27:24;3.07;;;2.10;;
21297;SDS011;10808;48.010;11.326;2024-02-14T04:29:50;2.63;;;2.05;;
21297;SDS011;10808;48.010;11.326;2024-02-14T04:32:16;2.78;;;2.03;;
21297;SDS011;10808;48.010;11.326;2024-02-14T04:34:42;4.38;;;2.10;;
21297;SDS011;10808;48.010;11.326;2024-02-14T04:37:09;2.60;;;2.00;;
21297;SDS011;10808;48.010;11.326;2024-02-14T04:39:39;2.53;;;1.95;;
21297;SDS011;10808;48.010;11.326;2024-02-14T04:42:05;3.20;;;2.10;;
21297;SDS011;10808;48.010;11.326;2024-02-14T04:44:32;5.03;;;2.13;;
21297;SDS011;10808;48.010;11.326;2024-02-14T04:47:00;3.25;;;2.00;;
21297;SDS011;10808;48.010;11.326;2024-02-14T04:49:26;2.63;;;1.90;;
21297;SDS011;10808;48.010;11.326;2024-02-14T04:51:54;3.33;;;2.03;;
21297;SDS011;10808;48.010;11.326;2024-02-14T04:54:20;3.83;;;2.00;;
21297;SDS011;10808;48.010;11.326;2024-02-14T04:56:46;2.47;;;1.98;;
21297;SDS011;10808;48.010;11.326;2024-02-14T04:59:12;2.80;;;1.87;;
21297;SDS011;10808;48.010;11.326;2024-02-14T05:01:39;2.95;;;2.03;;
21297;SDS011;10808;48.010;11.326;2024-02-14T05:04:05;2.45;;;1.92;;
21297;SDS011;10808;48.010;11.326;2024-02-14T05:06:35;2.65;;;2.10;;
21297;SDS011;10808;48.010;11.326;2024-02-14T05:09:01;2.92;;;1.83;;
21297;SDS011;10808;48.010;11.326;2024-02-14T05:11:28;2.63;;;1.73;;
21297;SDS011;10808;48.010;11.326;2024-02-14T05:13:54;2.57;;;1.80;;
21297;SDS011;10808;48.010;11.326;2024-02-14T05:16:20;2.90;;;1.70;;
21297;SDS011;10808;48.010;11.326;2024-02-14T05:18:46;2.67;;;1.70;;
21297;SDS011;10808;48.010;11.326;2024-02-14T05:21:12;3.88;;;1.63;;
21297;SDS011;10808;48.010;11.326;2024-02-14T05:23:39;4.32;;;2.28;;
21297;SDS011;10808;48.010;11.326;2024-02-14T05:26:05;2.70;;;1.83;;
21297;SDS011;10808;48.010;11.326;2024-02-14T05:28:31;2.90;;;1.70;;
21297;SDS011;10808;48.010;11.326;2024-02-14T05:30:59;3.75;;;2.00;;
21297;SDS011;10808;48.010;11.326;2024-02-14T05:33:25;3.60;;;1.60;;
21297;SDS011;10808;48.010;11.326;2024-02-14T05:35:51;2.83;;;1.70;;
21297;SDS011;10808;48.010;11.326;2024-02-14T05:38:18;3.07;;;1.60;;
21297;SDS011;10808;48.010;11.326;2024-02-14T05:40:47;3.70;;;1.98;;
21297;SDS011;10808;48.010;11.326;2024-02-14T05:43:14;3.17;;;1.50;;
21297;SDS011;10808;48.010;11.326;2024-02-14T05:45:41;3.10;;;1.43;;
21297;SDS011;10808;48.010;11.326;2024-02-14T05:48:07;3.35;;;1.60;;
21297;SDS011;10808;48.010;11.326;2024-02-14T05:50:34;1.83;;;1.45;;
21297;SDS011;10808;48.010;11.326;2024-02-14T05:53:00;2.10;;;1.58;;
21297;SDS011;10808;48.010;11.326;2024-02-14T05:55:26;3.53;;;1.90;;
21297;SDS011;10808;48.010;11.326;2024-02-14T05:57:52;2.95;;;1.80;;
21297;SDS011;10808;48.010;11.326;2024-02-14T06:00:19;2.30;;;1.70;;
21297;SDS011;10808;48.010;11.326;2024-02-14T06:02:46;3.33;;;1.90;;
21297;SDS011;10808;48.010;11.326;2024-02-14T06:05:13;2.10;;;1.65;;
21297;SDS011;10808;48.010;11.326;2024-02-14T06:07:39;3.10;;;1.90;;
21297;SDS011;10808;48.010;11.326;2024-02-14T06:10:06;4.35;;;1.70;;
21297;SDS011;10808;48.010;11.326;2024-02-14T06:12:33;3.38;;;1.92;;
21297;SDS011;10808;48.010;11.326;2024-02-14T06:15:00;4.78;;;2.00;;
21297;SDS011;10808;48.010;11.326;2024-02-14T06:17:26;3.90;;;1.90;;
21297;SDS011;10808;48.010;11.326;2024-02-14T06:19:53;3.10;;;1.70;;
21297;SDS011;10808;48.010;11.326;2024-02-14T06:22:19;3.63;;;2.00;;
21297;SDS011;10808;48.010;11.326;2024-02-14T06:24:45;2.67;;;2.00;;
21297;SDS011;10808;48.010;11.326;2024-02-14T06:27:14;2.53;;;1.73;;
21297;SDS011;10808;48.010;11.326;2024-02-14T06:29:43;3.38;;;1.90;;
21297;SDS011;10808;48.010;11.326;2024-02-14T06:32:11;3.88;;;2.30;;
21297;SDS011;10808;48.010;11.326;2024-02-14T06:34:38;2.40;;;1.70;;
21297;SDS011;10808;48.010;11.326;2024-02-14T06:37:04;2.78;;;1.65;;
21297;SDS011;10808;48.010;11.326;2024-02-14T06:39:30;3.30;;;1.90;;
21297;SDS011;10808;48.010;11.326;2024-02-14T06:41:56;3.20;;;2.20;;
21297;SDS011;10808;48.010;11.326;2024-02-14T06:44:25;3.38;;;2.00;;
21297;SDS011;10808;48.010;11.326;2024-02-14T06:46:51;3.53;;;1.80;;
21297;SDS011;10808;48.010;11.326;2024-02-14T06:49:17;3.15;;;2.00;;
21297;SDS011;10808;48.010;11.326;2024-02-14T06:51:43;3.72;;;1.92;;
21297;SDS011;10808;48.010;11.326;2024-02-14T06:54:10;3.47;;;1.90;;
21297;SDS011;10808;48.010;11.326;2024-02-14T06:56:38;3.55;;;1.83;;
21297;SDS011;10808;48.010;11.326;2024-02-14T06:59:04;4.75;;;2.28;;
21297;SDS011;10808;48.010;11.326;2024-02-14T07:01:30;4.05;;;2.08;;
21297;SDS011;10808;48.010;11.326;2024-02-14T07:03:56;3.90;;;2.40;;
21297;SDS011;10808;48.010;11.326;2024-02-14T07:06:23;4.18;;;2.88;;
21297;SDS011;10808;48.010;11.326;2024-02-14T07:08:50;8.25;;;4.50;;
21297;SDS011;10808;48.010;11.326;2024-02-14T07:11:16;5.57;;;4.47;;
21297;SDS011;10808;48.010;11.326;2024-02-14T07:13:42;6.07;;;4.07;;
21297;SDS011;10808;48.010;11.326;2024-02-14T07:16:08;4.47;;;3.25;;
21297;SDS011;10808;48.010;11.326;2024-02-14T07:18:34;5.78;;;3.40;;
21297;SDS011;10808;48.010;11.326;2024-02-14T07:21:00;3.90;;;2.70;;
21297;SDS011;10808;48.010;11.326;2024-02-14T07:23:27;4.40;;;2.57;;
21297;SDS011;10808;48.010;11.326;2024-02-14T07:25:53;3.80;;;2.17;;
21297;SDS011;10808;48.010;11.326;2024-02-14T07:28:19;3.27;;;2.37;;
21297;SDS011;10808;48.010;11.326;2024-02-14T07:30:45;3.90;;;2.40;;
21297;SDS011;10808;48.010;11.326;2024-02-14T07:33:11;4.50;;;2.05;;
21297;SDS011;10808;48.010;11.326;2024-02-14T07:35:38;3.70;;;2.00;;
21297;SDS011;10808;48.010;11.326;2024-02-14T07:38:04;4.07;;;2.17;;
21297;SDS011;10808;48.010;11.326;2024-02-14T07:40:30;3.05;;;1.70;;
21297;SDS011;10808;48.010;11.326;2024-02-14T07:42:57;2.75;;;1.80;;
21297;SDS011;10808;48.010;11.326;2024-02-14T07:45:23;4.88;;;1.85;;
21297;SDS011;10808;48.010;11.326;2024-02-14T07:47:49;3.83;;;1.77;;
21297;SDS011;10808;48.010;11.326;2024-02-14T07:50:15;2.85;;;1.88;;
21297;SDS011;10808;48.010;11.326;2024-02-14T07:52:42;3.45;;;2.00;;
21297;SDS011;10808;48.010;11.326;2024-02-14T07:55:09;2.70;;;1.98;;
21297;SDS011;10808;48.010;11.326;2024-02-14T07:57:38;3.40;;;2.00;;
21297;SDS011;10808;48.010;11.326;2024-02-14T08:00:05;4.15;;;2.20;;
21297;SDS011;10808;48.010;11.326;2024-02-14T08:02:34;3.95;;;2.00;;
21297;SDS011;10808;48.010;11.326;2024-02-14T08:05:00;3.58;;;2.38;;
21297;SDS011;10808;48.010;11.326;2024-02-14T08:07:27;4.55;;;2.42;;
21297;SDS011;10808;48.010;11.326;2024-02-14T08:09:54;5.88;;;2.50;;
21297;SDS011;10808;48.010;11.326;2024-02-14T08:12:20;3.78;;;2.28;;
21297;SDS011;10808;48.010;11.326;2024-02-14T08:14:47;3.53;;;2.55;;
21297;SDS011;10808;48.010;11.326;2024-02-14T08:17:13;4.85;;;2.13;;
21297;SDS011;10808;48.010;11.326;2024-02-14T08:19:39;2.35;;;2.00;;
21297;SDS011;10808;48.010;11.326;2024-02-14T08:22:05;2.50;;;1.80;;
21297;SDS011;10808;48.010;11.326;2024-02-14T08:24:32;4.15;;;1.95;;
21297;SDS011;10808;48.010;11.326;2024-02-14T08:26:58;3.20;;;1.88;;
21297;SDS011;10808;48.010;11.326;2024-02-14T08:29:24;5.13;;;2.00;;
21297;SDS011;10808;48.010;11.326;2024-02-14T08:31:50;3.80;;;1.90;;
21297;SDS011;10808;48.010;11.326;2024-02-14T08:34:16;3.63;;;1.60;;
21297;SDS011;10808;48.010;11.326;2024-02-14T08:36:42;4.43;;;1.70;;
21297;SDS011;10808;48.010;11.326;2024-02-14T08:39:09;2.80;;;1.65;;
21297;SDS011;10808;48.010;11.326;2024-02-14T08:41:36;2.00;;;1.60;;
21297;SDS011;10808;48.010;11.326;2024-02-14T08:44:02;2.85;;;1.60;;
21297;SDS011;10808;48.010;11.326;2024-02-14T08:46:30;3.22;;;1.60;;
21297;SDS011;10808;48.010;11.326;2024-02-14T08:48:57;2.95;;;1.60;;
21297;SDS011;10808;48.010;11.326;2024-02-14T08:51:25;3.85;;;1.45;;
21297;SDS011;10808;48.010;11.326;2024-02-14T08:53:51;2.10;;;1.52;;
21297;SDS011;10808;48.010;11.326;2024-02-14T08:56:22;4.10;;;1.80;;
21297;SDS011;10808;48.010;11.326;2024-02-14T08:58:48;3.25;;;1.65;;
21297;SDS011;10808;48.010;11.326;2024-02-14T09:01:15;1.80;;;1.50;;
21297;SDS011;10808;48.010;11.326;2024-02-14T09:03:44;2.50;;;1.53;;
21297;SDS011;10808;48.010;11.326;2024-02-14T09:06:14;2.58;;;1.60;;
21297;SDS011;10808;48.010;11.326;2024-02-14T09:08:43;2.28;;;1.60;;
21297;SDS011;10808;48.010;11.326;2024-02-14T09:11:09;1.90;;;1.47;;
21297;SDS011;10808;48.010;11.326;2024-02-14T09:13:35;2.90;;;1.60;;
21297;SDS011;10808;48.010;11.326;2024-02-14T09:16:01;1.95;;;1.60;;
21297;SDS011;10808;48.010;11.326;2024-02-14T09:18:28;2.30;;;1.40;;
21297;SDS011;10808;48.010;11.326;2024-02-14T09:20:55;2.30;;;1.40;;
21297;SDS011;10808;48.010;11.326;2024-02-14T09:23:22;2.35;;;1.40;;
21297;SDS011;10808;48.010;11.326;2024-02-14T09:25:48;2.13;;;1.48;;
21297;SDS011;10808;48.010;11.326;2024-02-14T09:28:18;2.38;;;1.27;;
21297;SDS011;10808;48.010;11.326;2024-02-14T09:30:45;2.92;;;1.60;;
21297;SDS011;10808;48.010;11.326;2024-02-14T09:33:11;1.20;;;0.98;;
21297;SDS011;10808;48.010;11.326;2024-02-14T09:35:37;2.10;;;1.20;;
21297;SDS011;10808;48.010;11.326;2024-02-14T09:38:21;1.57;;;0.93;;
21297;SDS011;10808;48.010;11.326;2024-02-14T09:40:50;2.25;;;1.42;;
21297;SDS011;10808;48.010;11.326;2024-02-14T09:43:38;2.70;;;1.40;;
21297;SDS011;10808;48.010;11.326;2024-02-14T09:46:06;2.90;;;1.10;;
21297;SDS011;10808;48.010;11.326;2024-02-14T09:48:33;2.33;;;1.10;;
21297;SDS011;10808;48.010;11.326;2024-02-14T09:50:59;1.77;;;1.40;;
21297;SDS011;10808;48.010;11.326;2024-02-14T09:53:25;1.88;;;1.23;;
21297;SDS011;10808;48.010;11.326;2024-02-14T09:55:54;3.53;;;1.33;;
21297;SDS011;10808;48.010;11.326;2024-02-14T09:58:20;2.00;;;1.10;;
21297;SDS011;10808;48.010;11.326;2024-02-14T10:00:47;1.83;;;1.10;;
21297;SDS011;10808;48.010;11.326;2024-02-14T10:03:14;1.45;;;1.10;;
21297;SDS011;10808;48.010;11.326;2024-02-14T10:05:41;3.00;;;1.20;;
21297;SDS011;10808;48.010;11.326;2024-02-14T10:08:07;3.25;;;1.10;;
21297;SDS011;10808;48.010;11.326;2024-02-14T10:10:34;2.40;;;1.15;;
21297;SDS011;10808;48.010;11.326;2024-02-14T10:13:03;1.00;;;0.90;;
21297;SDS011;10808;48.010;11.326;2024-02-14T10:15:30;1.10;;;0.90;;
21297;SDS011;10808;48.010;11.326;2024-02-14T10:17:57;1.65;;;1.00;;
21297;SDS011;10808;48.010;11.326;2024-02-14T10:20:24;1.40;;;1.00;;
21297;SDS011;10808;48.010;11.326;2024-02-14T10:22:52;2.20;;;1.08;;
21297;SDS011;10808;48.010;11.326;2024-02-14T10:25:26;1.37;;;1.00;;
21297;SDS011;10808;48.010;11.326;2024-02-14T10:27:52;1.70;;;1.07;;
21297;SDS011;10808;48.010;11.326;2024-02-14T10:30:18;1.05;;;0.90;;
21297;SDS011;10808;48.010;11.326;2024-02-14T10:32:44;1.42;;;0.90;;
21297;SDS011;10808;48.010;11.326;2024-02-14T10:35:17;1.27;;;0.90;;
21297;SDS011;10808;48.010;11.326;2024-02-14T10:40:27;1.25;;;0.90;;
21297;SDS011;10808;48.010;11.326;2024-02-14T10:42:57;1.15;;;1.00;;
21297;SDS011;10808;48.010;11.326;2024-02-14T10:45:26;1.90;;;1.00;;
21297;SDS011;10808;48.010;11.326;2024-02-14T10:47:52;1.33;;;0.90;;
21297;SDS011;10808;48.010;11.326;2024-02-14T10:50:23;2.92;;;1.10;;
21297;SDS011;10808;48.010;11.326;2024-02-14T10:52:50;1.60;;;0.90;;
21297;SDS011;10808;48.010;11.326;2024-02-14T10:55:20;1.02;;;0.80;;
21297;SDS011;10808;48.010;11.326;2024-02-14T10:57:53;1.15;;;0.80;;
21297;SDS011;10808;48.010;11.326;2024-02-14T11:00:20;1.58;;;0.80;;
21297;SDS011;10808;48.010;11.326;2024-02-14T11:02:47;0.73;;;0.60;;
21297;SDS011;10808;48.010;11.326;2024-02-14T11:07:46;1.65;;;0.70;;
21297;SDS011;10808;48.010;11.326;2024-02-14T11:10:15;1.90;;;1.23;;
21297;SDS011;10808;48.010;11.326;2024-02-14T11:12:43;1.33;;;0.93;;
21297;SDS011;10808;48.010;11.326;2024-02-14T11:15:11;1.40;;;1.20;;
21297;SDS011;10808;48.010;11.326;2024-02-14T11:17:38;0.98;;;0.80;;
21297;SDS011;10808;48.010;11.326;2024-02-14T11:20:15;1.10;;;1.00;;
21297;SDS011;10808;48.010;11.326;2024-02-14T11:22:50;1.90;;;0.70;;
21297;SDS011;10808;48.010;11.326;2024-02-14T11:25:30;1.77;;;1.00;;
21297;SDS011;10808;48.010;11.326;2024-02-14T11:27:57;1.30;;;0.90;;
21297;SDS011;10808;48.010;11.326;2024-02-14T11:30:34;1.50;;;1.00;;
21297;SDS011;10808;48.010;11.326;2024-02-14T11:33:13;0.88;;;0.80;;
21297;SDS011;10808;48.010;11.326;2024-02-14T11:35:51;0.93;;;0.70;;
21297;SDS011;10808;48.010;11.326;2024-02-14T11:38:21;1.10;;;0.80;;
21297;SDS011;10808;48.010;11.326;2024-02-14T11:40:54;0.98;;;0.88;;
21297;SDS011;10808;48.010;11.326;2024-02-14T11:43:23;1.48;;;0.93;;
21297;SDS011;10808;48.010;11.326;2024-02-14T11:45:50;1.30;;;0.82;;
21297;SDS011;10808;48.010;11.326;2024-02-14T11:48:17;2.10;;;0.80;;
21297;SDS011;10808;48.010;11.326;2024-02-14T11:50:49;1.13;;;0.80;;
21297;SDS011;10808;48.010;11.326;2024-02-14T11:53:17;1.73;;;0.75;;
21297;SDS011;10808;48.010;11.326;2024-02-14T11:55:44;0.93;;;0.70;;
21297;SDS011;10808;48.010;11.326;2024-02-14T11:58:14;1.27;;;0.75;;
21297;SDS011;10808;48.010;11.326;2024-02-14T12:00:42;0.68;;;0.60;;
21297;SDS011;10808;48.010;11.326;2024-02-14T12:03:16;1.30;;;0.80;;
21297;SDS011;10808;48.010;11.326;2024-02-14T12:05:45;0.82;;;0.80;;
21297;SDS011;10808;48.010;11.326;2024-02-14T12:08:13;1.13;;;0.70;;
21297;SDS011;10808;48.010;11.326;2024-02-14T12:10:42;1.85;;;0.90;;
21297;SDS011;10808;48.010;11.326;2024-02-14T12:13:08;0.90;;;0.80;;
21297;SDS011;10808;48.010;11.326;2024-02-14T12:15:40;1.90;;;0.80;;
21297;SDS011;10808;48.010;11.326;2024-02-14T12:18:10;0.75;;;0.70;;
21297;SDS011;10808;48.010;11.326;2024-02-14T12:20:40;1.27;;;0.70;;
21297;SDS011;10808;48.010;11.326;2024-02-14T12:23:07;1.05;;;0.90;;
21297;SDS011;10808;48.010;11.326;2024-02-14T12:25:33;1.67;;;0.85;;
21297;SDS011;10808;48.010;11.326;2024-02-14T12:27:59;1.98;;;0.80;;
21297;SDS011;10808;48.010;11.326;2024-02-14T12:30:45;1.00;;;0.80;;
21297;SDS011;10808;48.010;11.326;2024-02-14T12:33:13;0.98;;;0.85;;
21297;SDS011;10808;48.010;11.326;2024-02-14T12:35:49;1.58;;;0.80;;
21297;SDS011;10808;48.010;11.326;2024-02-14T12:38:18;1.90;;;0.90;;
21297;SDS011;10808;48.010;11.326;2024-02-14T12:40:45;1.63;;;0.85;;
21297;SDS011;10808;48.010;11.326;2024-02-14T12:43:12;1.17;;;0.75;;
21297;SDS011;10808;48.010;11.326;2024-02-14T12:45:40;1.20;;;0.77;;
21297;SDS011;10808;48.010;11.326;2024-02-14T12:48:06;1.02;;;0.70;;
21297;SDS011;10808;48.010;11.326;2024-02-14T12:50:36;1.40;;;0.77;;
21297;SDS011;10808;48.010;11.326;2024-02-14T12:53:03;1.88;;;0.70;;
21297;SDS011;10808;48.010;11.326;2024-02-14T12:55:30;0.70;;;0.60;;
21297;SDS011;10808;48.010;11.326;2024-02-14T12:57:56;0.90;;;0.77;;
21297;SDS011;10808;48.010;11.326;2024-02-14T13:00:23;1.00;;;0.73;;
21297;SDS011;10808;48.010;11.326;2024-02-14T13:02:50;0.70;;;0.60;;
21297;SDS011;10808;48.010;11.326;2024-02-14T13:05:18;0.63;;;0.60;;
21297;SDS011;10808;48.010;11.326;2024-02-14T13:07:45;1.00;;;0.70;;
21297;SDS011;10808;48.010;11.326;2024-02-14T13:10:12;0.88;;;0.70;;
21297;SDS011;10808;48.010;11.326;2024-02-14T13:12:38;0.73;;;0.67;;
21297;SDS011;10808;48.010;11.326;2024-02-14T13:15:04;1.20;;;0.80;;
21297;SDS011;10808;48.010;11.326;2024-02-14T13:17:31;1.52;;;0.90;;
21297;SDS011;10808;48.010;11.326;2024-02-14T13:19:57;0.77;;;0.68;;
21297;SDS011;10808;48.010;11.326;2024-02-14T13:22:27;0.73;;;0.60;;
21297;SDS011;10808;48.010;11.326;2024-02-14T13:24:53;1.58;;;0.80;;
21297;SDS011;10808;48.010;11.326;2024-02-14T13:27:19;0.90;;;0.70;;
21297;SDS011;10808;48.010;11.326;2024-02-14T13:29:48;1.10;;;0.80;;
21297;SDS011;10808;48.010;11.326;2024-02-14T13:32:15;1.20;;;0.70;;
21297;SDS011;10808;48.010;11.326;2024-02-14T13:34:41;1.00;;;0.60;;
21297;SDS011;10808;48.010;11.326;2024-02-14T13:37:09;0.75;;;0.73;;
21297;SDS011;10808;48.010;11.326;2024-02-14T13:39:35;1.90;;;0.60;;
21297;SDS011;10808;48.010;11.326;2024-02-14T13:42:01;0.82;;;0.70;;
21297;SDS011;10808;48.010;11.326;2024-02-14T13:44:28;0.80;;;0.60;;
21297;SDS011;10808;48.010;11.326;2024-02-14T13:46:55;0.70;;;0.70;;
21297;SDS011;10808;48.010;11.326;2024-02-14T13:49:21;0.65;;;0.65;;
21297;SDS011;10808;48.010;11.326;2024-02-14T13:51:51;0.60;;;0.60;;
21297;SDS011;10808;48.010;11.326;2024-02-14T13:54:18;1.10;;;0.52;;
21297;SDS011;10808;48.010;11.326;2024-02-14T13:56:45;1.30;;;0.70;;
21297;SDS011;10808;48.010;11.326;2024-02-14T13:59:14;1.20;;;0.90;;
21297;SDS011;10808;48.010;11.326;2024-02-14T14:01:40;1.10;;;0.70;;
21297;SDS011;10808;48.010;11.326;2024-02-14T14:04:06;1.05;;;0.80;;
21297;SDS011;10808;48.010;11.326;2024-02-14T14:06:32;0.55;;;0.55;;
21297;SDS011;10808;48.010;11.326;2024-02-14T14:08:59;0.60;;;0.60;;
21297;SDS011;10808;48.010;11.326;2024-02-14T14:11:26;0.50;;;0.50;;
21297;SDS011;10808;48.010;11.326;2024-02-14T14:13:52;0.70;;;0.68;;
21297;SDS011;10808;48.010;11.326;2024-02-14T14:16:18;0.90;;;0.70;;
21297;SDS011;10808;48.010;11.326;2024-02-14T14:18:48;0.50;;;0.50;;
21297;SDS011;10808;48.010;11.326;2024-02-14T14:21:14;0.55;;;0.50;;
21297;SDS011;10808;48.010;11.326;2024-02-14T14:23:41;0.50;;;0.50;;
21297;SDS011;10808;48.010;11.326;2024-02-14T14:26:07;0.60;;;0.60;;
21297;SDS011;10808;48.010;11.326;2024-02-14T14:28:33;0.50;;;0.50;;
21297;SDS011;10808;48.010;11.326;2024-02-14T14:30:59;0.98;;;0.50;;
21297;SDS011;10808;48.010;11.326;2024-02-14T14:33:27;1.10;;;0.60;;
21297;SDS011;10808;48.010;11.326;2024-02-14T14:35:53;0.80;;;0.50;;
21297;SDS011;10808;48.010;11.326;2024-02-14T14:38:20;1.13;;;0.70;;
21297;SDS011;10808;48.010;11.326;2024-02-14T14:40:47;0.95;;;0.70;;
21297;SDS011;10808;48.010;11.326;2024-02-14T14:43:13;0.50;;;0.50;;